Big Piney, WY weather

Big Piney-Marbleton Airport (AMOS), Big Piney, WY: 6/19/2018 03:53
Visibility10 statute milesclear sky
View 7-Day Forecast
Area Summary
Sky/CloudsSky Clear
Weather [last 24 hours]None [rain began 04:49; rain ended 08:05; rain began 11:45, thunderstorm began 11:43; thunderstorm ended 12:03; rain ended 12:19, thunderstorm ended 12:03 ]
Pressure30.18 in.Hg (1022 hPa)
Dew Point37.9 °F (3.3 °C)
Relative Humidity95.9 %
Last 24-Hour Precip.1.04 in. (26.42 mm)
Reading TimePrecipitation
6-hr ending 6/18@17:530.01 in. (0.254 mm)
6-hr ending 6/18@11:530.06 in. (1.524 mm)
6-hr ending 6/18@05:530.44 in. (11.18 mm)
24-hr ending 6/18@05:531.06 in. (26.92 mm)
Temperature39 °F (3.9 °C)red thermometer
Wind Chill34.7 °F (1.52 °C)
Reading TimeMinimum to Maximum Temperature
6-hr ending 6/18@23:5343 °F to 60.1 °F (6.1 °C to 15.6 °C)
6-hr ending 6/18@17:5348.9 °F to 62.1 °F (9.4 °C to 16.7 °C)
6-hr ending 6/18@11:5343 °F to 57.9 °F (6.1 °C to 14.4 °C)
6-hr ending 6/18@05:5339.9 °F to 51.1 °F (4.4 °C to 10.6 °C)
24-hr ending 6/19@00:5339.9 °F to 62.1 °F (4.4 °C to 16.7 °C)
Wind5.75 MPH (5 KT) green arrow pointing 67.5 degrees
Wind FromEast/Northeast (070 Degrees)
Rolling 24-hr Peak Wind36.8 MPH (32 KT) on 6/18@04:49
Rolling 24-hr Peak Wind FromWest (280 Degrees)
Twilight Begins05:06Sunshine Yesterday
Sunrise05:41N/A
Sunset21:03
Twilight Ends21:38
METARKBPI 190953Z AUTO 07005KT 10SM CLR 04/03 A3018 RMK AO2 SLP165 T00390033
Tags: